createdAt,value
2023-03-26T00:01:02.090Z,76.21
2023-03-26T00:03:30.169Z,76.15
2023-03-26T00:06:04.130Z,76.25
2023-03-26T00:08:31.534Z,76.27
2023-03-26T00:11:00.596Z,76.02
2023-03-26T00:13:28.389Z,75.81
2023-03-26T00:15:55.977Z,75.58
2023-03-26T00:18:30.171Z,75.86
2023-03-26T00:21:01.963Z,75.82
2023-03-26T00:23:30.358Z,76.21
2023-03-26T00:25:57.937Z,76.30
2023-03-26T00:28:26.404Z,75.85
2023-03-26T00:31:01.644Z,74.94
2023-03-26T00:33:29.079Z,74.33
2023-03-26T00:35:59.160Z,74.59
2023-03-26T00:38:27.894Z,74.34
2023-03-26T00:40:55.308Z,74.30
2023-03-26T00:43:22.669Z,74.47
2023-03-26T00:45:51.744Z,75.14
2023-03-26T00:48:19.221Z,74.37
2023-03-26T00:50:47.003Z,74.41
2023-03-26T00:53:14.987Z,74.32
2023-03-26T00:55:43.070Z,75.07
2023-03-26T00:58:10.950Z,75.69
2023-03-26T01:00:51.091Z,76.02
2023-03-26T01:03:27.696Z,77.48
2023-03-26T01:06:22.404Z,77.79
2023-03-26T01:08:50.751Z,77.70
2023-03-26T01:11:21.040Z,77.30
2023-03-26T01:13:52.679Z,77.17
2023-03-26T01:16:26.893Z,77.17
2023-03-26T01:18:54.521Z,77.02
2023-03-26T01:21:23.350Z,77.58
2023-03-26T01:23:59.834Z,77.49
2023-03-26T01:26:39.118Z,77.94
2023-03-26T01:29:08.458Z,77.96
2023-03-26T01:31:47.866Z,78.51
2023-03-26T01:34:23.961Z,78.29
2023-03-26T01:36:59.234Z,78.92
2023-03-26T01:39:31.956Z,78.90
2023-03-26T01:42:03.226Z,78.44
2023-03-26T01:44:53.763Z,78.66
2023-03-26T01:47:21.554Z,78.39
2023-03-26T01:49:48.869Z,78.41
2023-03-26T01:52:25.189Z,78.99
2023-03-26T01:54:54.368Z,79.45
2023-03-26T01:57:40.371Z,78.91
2023-03-26T02:00:28.428Z,79.31
2023-03-26T02:03:05.062Z,79.64
2023-03-26T02:05:35.948Z,79.49
2023-03-26T02:08:21.176Z,78.99
2023-03-26T02:10:52.677Z,78.92
2023-03-26T02:13:20.122Z,79.18
2023-03-26T02:16:01.796Z,79.00
2023-03-26T02:18:39.133Z,78.86
2023-03-26T02:21:10.176Z,78.56
2023-03-26T02:23:41.454Z,78.25
2023-03-26T02:26:10.473Z,77.84
2023-03-26T02:28:49.609Z,76.92
2023-03-26T02:31:19.404Z,77.06
2023-03-26T02:33:47.820Z,76.80
2023-03-26T02:36:16.252Z,76.64
2023-03-26T02:38:44.345Z,76.45
2023-03-26T02:41:11.962Z,76.62
2023-03-26T02:43:52.109Z,76.51
2023-03-26T02:46:23.037Z,76.77
2023-03-26T02:49:08.310Z,76.87
2023-03-26T02:51:36.082Z,77.23
2023-03-26T02:54:07.269Z,76.97
2023-03-26T02:56:34.666Z,77.74
2023-03-26T02:59:37.268Z,76.93
2023-03-26T03:02:24.503Z,76.67
2023-03-26T03:05:01.590Z,76.13
2023-03-26T03:07:32.979Z,75.74
2023-03-26T03:10:02.786Z,75.46
2023-03-26T03:12:48.457Z,75.18
2023-03-26T03:15:16.113Z,74.77
2023-03-26T03:17:43.641Z,74.63
2023-03-26T03:20:14.335Z,74.90
2023-03-26T03:22:42.368Z,74.84
2023-03-26T03:25:14.368Z,75.21
2023-03-26T03:27:42.972Z,75.45
2023-03-26T03:30:13.563Z,76.00
2023-03-26T03:32:40.996Z,76.51
2023-03-26T03:35:09.347Z,76.58
2023-03-26T03:37:36.821Z,76.88
2023-03-26T03:40:08.372Z,76.72
2023-03-26T03:42:36.140Z,76.36
2023-03-26T03:45:06.137Z,76.60
2023-03-26T03:47:59.598Z,76.94
2023-03-26T03:50:35.881Z,76.64
2023-03-26T03:53:19.436Z,76.20
2023-03-26T03:55:53.436Z,75.79
2023-03-26T03:58:24.362Z,76.10
2023-03-26T04:00:54.257Z,76.23
2023-03-26T04:03:47.807Z,76.55
2023-03-26T04:06:19.126Z,76.51
2023-03-26T04:08:52.117Z,76.62
2023-03-26T04:11:19.691Z,76.21
2023-03-26T04:14:22.271Z,76.34
2023-03-26T04:16:59.167Z,76.89
2023-03-26T04:19:28.933Z,76.30
2023-03-26T04:21:56.224Z,75.50
2023-03-26T04:24:24.615Z,75.88
2023-03-26T04:27:27.506Z,75.93
2023-03-26T04:30:03.017Z,75.57
2023-03-26T04:32:34.329Z,75.92
2023-03-26T04:35:04.188Z,76.52
2023-03-26T04:37:40.016Z,76.70
2023-03-26T04:40:16.018Z,76.15
2023-03-26T04:43:18.629Z,74.97
2023-03-26T04:46:06.452Z,74.67
2023-03-26T04:48:41.654Z,74.38
2023-03-26T04:51:18.410Z,74.21
2023-03-26T04:54:00.042Z,74.50
2023-03-26T04:56:33.542Z,74.64
2023-03-26T04:59:33.358Z,74.05
2023-03-26T05:02:02.226Z,73.93
2023-03-26T05:04:39.640Z,73.75
2023-03-26T05:07:09.575Z,73.62
2023-03-26T05:09:43.229Z,74.00
2023-03-26T05:12:13.144Z,73.95
2023-03-26T05:14:52.153Z,74.25
2023-03-26T05:17:41.585Z,73.95
2023-03-26T05:20:21.802Z,73.35
2023-03-26T05:22:49.536Z,73.15
2023-03-26T05:25:23.741Z,73.55
2023-03-26T05:27:51.464Z,74.76
2023-03-26T05:30:20.860Z,75.50
2023-03-26T05:32:52.284Z,75.75
2023-03-26T05:35:24.447Z,75.39
2023-03-26T05:37:51.870Z,75.25
2023-03-26T05:40:23.185Z,75.08
2023-03-26T05:42:59.838Z,74.31
2023-03-26T05:45:47.396Z,74.13
2023-03-26T05:48:35.002Z,73.71
2023-03-26T05:51:02.313Z,73.70
2023-03-26T05:53:32.331Z,73.27
2023-03-26T05:56:18.500Z,73.13
2023-03-26T05:59:04.243Z,73.33
2023-03-26T06:01:57.587Z,73.03
2023-03-26T06:04:47.943Z,73.15
2023-03-26T06:07:47.418Z,73.12
2023-03-26T06:10:18.476Z,73.35
2023-03-26T06:12:46.848Z,73.35
2023-03-26T06:15:14.304Z,72.78
2023-03-26T06:18:00.114Z,72.63
2023-03-26T06:20:33.641Z,72.56
2023-03-26T06:23:06.661Z,71.68
2023-03-26T06:26:00.563Z,71.37
2023-03-26T06:28:49.252Z,72.03
2023-03-26T06:31:37.636Z,72.80
2023-03-26T06:34:40.333Z,72.90
2023-03-26T06:37:07.937Z,72.63
2023-03-26T06:39:35.847Z,71.81
2023-03-26T06:42:13.080Z,71.40
2023-03-26T06:45:04.651Z,70.31
2023-03-26T06:47:34.891Z,69.66
2023-03-26T06:50:21.034Z,68.58
2023-03-26T06:53:14.351Z,65.56
2023-03-26T06:55:41.898Z,62.56
2023-03-26T06:58:35.392Z,59.77
2023-03-26T07:01:21.509Z,61.63
2023-03-26T07:04:24.076Z,64.29
2023-03-26T07:07:18.307Z,65.37
2023-03-26T07:10:04.656Z,64.97
2023-03-26T07:12:56.793Z,64.86
2023-03-26T07:15:42.187Z,64.83
2023-03-26T07:18:20.647Z,64.60
2023-03-26T07:20:49.409Z,64.91
2023-03-26T07:23:20.936Z,65.22
2023-03-26T07:25:58.465Z,64.87
2023-03-26T07:29:04.019Z,65.43
2023-03-26T07:31:42.265Z,66.63
2023-03-26T07:34:49.203Z,67.43
2023-03-26T07:37:59.470Z,67.75
2023-03-26T07:40:48.131Z,68.05
2023-03-26T07:43:38.948Z,68.31
2023-03-26T07:46:12.907Z,68.09
2023-03-26T07:48:51.976Z,68.97
2023-03-26T07:51:33.478Z,68.66
2023-03-26T07:54:10.811Z,68.11
2023-03-26T07:57:11.941Z,67.74
2023-03-26T08:00:15.315Z,67.67
2023-03-26T08:03:22.405Z,66.99
2023-03-26T08:06:14.782Z,66.91
2023-03-26T08:09:17.629Z,66.58
2023-03-26T08:12:26.526Z,67.07
2023-03-26T08:15:03.410Z,64.30
2023-03-26T08:17:42.841Z,64.22
2023-03-26T08:20:34.402Z,63.57
2023-03-26T08:23:09.584Z,61.82
2023-03-26T08:26:02.538Z,61.98
2023-03-26T08:28:46.148Z,61.98
2023-03-26T08:31:13.808Z,61.00
2023-03-26T08:33:41.215Z,61.37
2023-03-26T08:36:09.878Z,61.16
2023-03-26T08:38:37.255Z,61.71
2023-03-26T08:41:10.781Z,62.66
2023-03-26T08:43:50.344Z,63.04
2023-03-26T08:46:32.923Z,62.76
2023-03-26T08:49:09.941Z,63.68
2023-03-26T08:51:52.288Z,63.93
2023-03-26T08:54:41.466Z,63.64
2023-03-26T08:57:41.054Z,64.12
2023-03-26T09:00:36.915Z,63.65
2023-03-26T09:03:11.428Z,64.01
2023-03-26T09:05:45.117Z,63.99
2023-03-26T09:08:34.264Z,64.38
2023-03-26T09:11:19.765Z,64.58
2023-03-26T09:14:09.178Z,65.14
2023-03-26T09:17:01.446Z,65.62
2023-03-26T09:19:56.570Z,64.14
2023-03-26T09:22:48.020Z,64.33
2023-03-26T09:25:30.546Z,64.35
2023-03-26T09:28:25.856Z,63.44
2023-03-26T09:31:20.690Z,62.07
2023-03-26T09:33:56.204Z,62.13
2023-03-26T09:36:23.523Z,61.37
2023-03-26T09:39:08.912Z,60.55
2023-03-26T09:41:43.495Z,60.49
2023-03-26T09:44:20.116Z,60.09
2023-03-26T09:46:50.620Z,60.51
2023-03-26T09:49:25.186Z,60.96
2023-03-26T09:52:10.864Z,61.33
2023-03-26T09:54:51.798Z,60.92
2023-03-26T09:57:26.819Z,60.42
2023-03-26T09:59:54.175Z,60.31
2023-03-26T10:02:46.138Z,60.47
2023-03-26T10:05:53.660Z,61.40
2023-03-26T10:08:28.845Z,60.12
2023-03-26T10:11:05.947Z,60.36
2023-03-26T10:13:56.405Z,60.60
2023-03-26T10:16:42.454Z,59.83
2023-03-26T10:19:19.149Z,60.14
2023-03-26T10:22:17.949Z,62.56
2023-03-26T10:25:04.921Z,63.98
2023-03-26T10:27:37.897Z,64.09
2023-03-26T10:30:23.436Z,63.76
2023-03-26T10:33:06.040Z,63.28
2023-03-26T10:35:47.433Z,63.06
2023-03-26T10:38:30.174Z,62.19
2023-03-26T10:41:13.769Z,62.14
2023-03-26T10:44:07.417Z,61.69
2023-03-26T10:46:45.081Z,61.32
2023-03-26T10:49:33.853Z,61.71
2023-03-26T10:52:03.945Z,60.95
2023-03-26T10:54:56.711Z,61.16
2023-03-26T10:57:26.859Z,61.60
2023-03-26T10:59:56.048Z,61.57
2023-03-26T11:02:31.089Z,60.72
2023-03-26T11:05:07.559Z,60.86
2023-03-26T11:07:51.880Z,59.84
2023-03-26T11:10:28.497Z,59.30
2023-03-26T11:13:14.373Z,59.77
2023-03-26T11:15:59.064Z,59.87
2023-03-26T11:18:43.750Z,60.15
2023-03-26T11:21:20.834Z,60.06
2023-03-26T11:24:05.571Z,59.69
2023-03-26T11:26:42.743Z,59.42
2023-03-26T11:29:33.715Z,58.93
2023-03-26T11:32:10.725Z,59.10
2023-03-26T11:35:01.861Z,59.31
2023-03-26T11:37:42.692Z,59.26
2023-03-26T11:40:14.361Z,58.61
2023-03-26T11:42:41.626Z,58.83
2023-03-26T11:45:15.546Z,58.80
2023-03-26T11:47:52.065Z,58.26
2023-03-26T11:50:25.772Z,57.04
2023-03-26T11:52:57.458Z,56.81
2023-03-26T11:55:25.145Z,56.88
2023-03-26T11:57:54.262Z,55.98
2023-03-26T12:00:23.173Z,56.35
2023-03-26T12:02:50.898Z,55.50
2023-03-26T12:05:25.112Z,56.16
2023-03-26T12:07:59.595Z,56.21
2023-03-26T12:10:34.916Z,55.35
2023-03-26T12:13:06.608Z,53.90
2023-03-26T12:15:33.946Z,52.63
2023-03-26T12:18:20.009Z,52.90
2023-03-26T12:20:48.316Z,52.83
2023-03-26T12:23:35.025Z,52.39
2023-03-26T12:26:14.467Z,51.93
2023-03-26T12:28:49.768Z,53.01
2023-03-26T12:31:20.950Z,53.16
2023-03-26T12:34:04.577Z,53.11
2023-03-26T12:36:33.449Z,53.90
2023-03-26T12:39:17.033Z,53.90
2023-03-26T12:43:51.614Z,53.71
2023-03-26T12:44:58.778Z,53.83
2023-03-26T12:47:57.562Z,53.23
2023-03-26T12:50:34.573Z,53.14
2023-03-26T12:53:07.353Z,52.93
2023-03-26T12:55:44.180Z,52.17
2023-03-26T12:58:42.452Z,52.19
2023-03-26T13:01:20.186Z,49.31
2023-03-26T13:04:17.321Z,49.10
2023-03-26T13:07:00.649Z,49.15
2023-03-26T13:09:47.500Z,48.17
2023-03-26T13:12:38.257Z,47.42
2023-03-26T13:15:23.977Z,47.14
2023-03-26T13:18:04.426Z,46.84
2023-03-26T13:20:43.363Z,46.30
2023-03-26T13:23:27.308Z,45.85
2023-03-26T13:26:00.934Z,45.25
2023-03-26T13:28:31.956Z,45.06
2023-03-26T13:31:04.794Z,45.33
2023-03-26T13:33:34.950Z,44.48
2023-03-26T13:36:34.845Z,45.42
2023-03-26T13:39:27.306Z,45.17
2023-03-26T13:42:18.387Z,45.85
2023-03-26T13:45:20.406Z,46.78
2023-03-26T13:47:49.484Z,47.36
2023-03-26T13:50:27.190Z,47.99
2023-03-26T13:53:00.658Z,48.49
2023-03-26T13:55:36.096Z,48.72
2023-03-26T13:58:11.179Z,49.02
2023-03-26T14:01:04.085Z,49.21
2023-03-26T14:03:47.321Z,48.51
2023-03-26T14:06:34.215Z,49.21
2023-03-26T14:09:23.887Z,49.30
2023-03-26T14:11:57.860Z,49.56
2023-03-26T14:15:04.471Z,49.89
2023-03-26T14:17:47.582Z,50.13
2023-03-26T14:20:18.039Z,50.35
2023-03-26T14:23:21.265Z,50.21
2023-03-26T14:26:01.130Z,50.64
2023-03-26T14:29:05.788Z,50.76
2023-03-26T14:31:54.299Z,51.47
2023-03-26T14:34:42.841Z,51.71
2023-03-26T14:37:33.038Z,50.71
2023-03-26T14:40:26.113Z,50.86
2023-03-26T14:42:56.388Z,50.43
2023-03-26T14:45:32.106Z,50.18
2023-03-26T14:48:17.453Z,50.56
2023-03-26T14:51:09.072Z,51.29
2023-03-26T14:53:38.366Z,51.72
2023-03-26T14:56:08.855Z,51.45
2023-03-26T14:58:53.889Z,51.88
2023-03-26T15:01:51.803Z,51.60
2023-03-26T15:04:34.635Z,51.79
2023-03-26T15:07:23.269Z,51.54
2023-03-26T15:10:17.887Z,51.03
2023-03-26T15:13:01.926Z,51.09
2023-03-26T15:15:44.457Z,51.27
2023-03-26T15:18:43.428Z,51.03
2023-03-26T15:21:13.615Z,50.92
2023-03-26T15:24:26.964Z,50.84
2023-03-26T15:27:22.653Z,51.38
2023-03-26T15:30:14.383Z,51.67
2023-03-26T15:33:19.126Z,51.87
2023-03-26T15:36:13.946Z,51.73
2023-03-26T15:39:03.689Z,51.56
2023-03-26T15:41:55.457Z,51.46
2023-03-26T15:44:53.574Z,51.59
2023-03-26T15:47:47.849Z,52.05
2023-03-26T15:50:47.319Z,52.69
2023-03-26T15:54:02.527Z,53.50
2023-03-26T15:56:49.306Z,53.28
2023-03-26T15:59:28.923Z,53.04
2023-03-26T16:02:05.073Z,53.29
2023-03-26T16:04:54.234Z,53.44
2023-03-26T16:07:24.945Z,53.59
2023-03-26T16:09:55.210Z,53.73
2023-03-26T16:12:29.859Z,54.11
2023-03-26T16:15:07.356Z,54.25
2023-03-26T16:18:09.442Z,54.45
2023-03-26T16:20:54.382Z,54.75
2023-03-26T16:23:47.754Z,54.98
2023-03-26T16:26:27.830Z,55.09
2023-03-26T16:29:02.421Z,55.13
2023-03-26T16:31:38.066Z,55.49
2023-03-26T16:34:09.268Z,55.96
2023-03-26T16:36:37.972Z,55.90
2023-03-26T16:39:08.597Z,56.09
2023-03-26T16:41:38.874Z,56.31
2023-03-26T16:44:30.482Z,56.44
2023-03-26T16:47:34.046Z,56.91
2023-03-26T16:50:30.115Z,56.91
2023-03-26T16:52:58.895Z,57.26
2023-03-26T16:55:26.470Z,56.50
2023-03-26T16:58:10.475Z,56.52
2023-03-26T17:00:42.650Z,56.60
2023-03-26T17:03:27.231Z,56.79
2023-03-26T17:05:56.673Z,56.89
2023-03-26T17:08:55.411Z,56.86
2023-03-26T17:11:47.410Z,57.15
2023-03-26T17:14:39.735Z,57.32
2023-03-26T17:17:47.390Z,57.50
2023-03-26T17:20:35.907Z,57.88
2023-03-26T17:23:11.144Z,58.26
2023-03-26T17:26:01.438Z,58.72
2023-03-26T17:28:52.728Z,58.65
2023-03-26T17:31:26.462Z,58.97
2023-03-26T17:33:53.943Z,59.27
2023-03-26T17:36:39.792Z,59.12
2023-03-26T17:39:39.368Z,59.51
2023-03-26T17:42:20.017Z,59.55
2023-03-26T17:45:01.512Z,59.73
2023-03-26T17:47:41.311Z,59.82
2023-03-26T17:50:14.818Z,60.24
2023-03-26T17:52:51.679Z,60.94
2023-03-26T17:55:25.880Z,60.56
2023-03-26T17:57:54.494Z,60.97
2023-03-26T18:00:23.680Z,60.75
2023-03-26T18:03:21.684Z,61.57
2023-03-26T18:05:49.402Z,62.37
2023-03-26T18:08:37.176Z,63.03
2023-03-26T18:11:10.565Z,64.62
2023-03-26T18:13:52.954Z,64.36
2023-03-26T18:16:21.390Z,65.65
2023-03-26T18:18:58.087Z,68.15
2023-03-26T18:21:32.955Z,68.05
2023-03-26T18:24:00.597Z,69.99
2023-03-26T18:26:47.283Z,74.17
2023-03-26T18:29:27.839Z,72.60
2023-03-26T18:32:00.703Z,75.25
2023-03-26T18:34:32.669Z,76.84
2023-03-26T18:37:03.192Z,77.11
2023-03-26T18:39:30.557Z,76.81
2023-03-26T18:41:58.176Z,77.98
2023-03-26T18:44:25.546Z,77.49
2023-03-26T18:46:54.905Z,77.03
2023-03-26T18:49:22.677Z,77.71
2023-03-26T18:51:56.718Z,76.52
2023-03-26T18:54:24.976Z,76.11
2023-03-26T18:56:52.795Z,76.91
2023-03-26T18:59:32.804Z,77.28
2023-03-26T19:02:00.291Z,78.38
2023-03-26T19:04:28.236Z,78.81
2023-03-26T19:06:55.713Z,77.91
2023-03-26T19:09:31.615Z,78.48
2023-03-26T19:12:06.098Z,78.64
2023-03-26T19:14:37.149Z,79.14
2023-03-26T19:17:05.485Z,79.39
2023-03-26T19:19:34.177Z,79.72
2023-03-26T19:22:01.796Z,78.87
2023-03-26T19:24:29.146Z,79.43
2023-03-26T19:26:56.506Z,79.58
2023-03-26T19:29:31.937Z,79.60
2023-03-26T19:32:19.212Z,80.41
2023-03-26T19:34:47.146Z,79.96
2023-03-26T19:37:25.289Z,80.63
2023-03-26T19:40:01.684Z,80.63
2023-03-26T19:42:43.478Z,79.09
2023-03-26T19:45:19.814Z,79.67
2023-03-26T19:50:36.744Z,80.02
2023-03-26T19:51:18.658Z,79.52
2023-03-26T19:53:16.722Z,80.46
2023-03-26T19:56:05.264Z,80.44
2023-03-26T19:58:35.448Z,80.88
2023-03-26T20:01:03.693Z,81.27
2023-03-26T20:03:38.214Z,81.71
2023-03-26T20:06:05.931Z,82.46
2023-03-26T20:08:33.521Z,82.17
2023-03-26T20:11:00.834Z,82.81
2023-03-26T20:13:28.313Z,83.12
2023-03-26T20:16:07.708Z,82.91
2023-03-26T20:18:35.269Z,81.77
2023-03-26T20:21:05.546Z,81.72
2023-03-26T20:23:32.768Z,80.74
2023-03-26T20:26:00.160Z,81.13
2023-03-26T20:28:27.433Z,81.77
2023-03-26T20:30:55.103Z,81.37
2023-03-26T20:33:26.747Z,81.95
2023-03-26T20:35:55.391Z,81.33
2023-03-26T20:38:36.720Z,82.51
2023-03-26T20:41:07.369Z,81.92
2023-03-26T20:43:34.695Z,81.99
2023-03-26T20:46:02.586Z,80.97
2023-03-26T20:48:30.086Z,80.67
2023-03-26T20:50:57.363Z,80.57
2023-03-26T20:53:25.056Z,81.24
2023-03-26T20:55:52.340Z,81.39
2023-03-26T20:58:31.257Z,80.42
2023-03-26T21:01:00.801Z,80.63
2023-03-26T21:03:28.242Z,81.84
2023-03-26T21:06:02.624Z,82.38
2023-03-26T21:08:36.856Z,82.48
2023-03-26T21:11:05.586Z,82.44
2023-03-26T21:13:39.801Z,82.49
2023-03-26T21:16:08.180Z,82.62
2023-03-26T21:18:36.936Z,82.86
2023-03-26T21:21:32.186Z,82.86
2023-03-26T21:24:24.014Z,83.11
2023-03-26T21:27:28.499Z,82.98
2023-03-26T21:29:56.274Z,82.16
2023-03-26T21:32:24.305Z,82.03
2023-03-26T21:34:58.780Z,82.21
2023-03-26T21:37:27.158Z,81.81
2023-03-26T21:39:54.605Z,82.22
2023-03-26T21:42:22.098Z,82.14
2023-03-26T21:44:49.578Z,81.89
2023-03-26T21:47:16.928Z,82.28
2023-03-26T21:49:44.525Z,81.65
2023-03-26T21:52:15.159Z,82.01
2023-03-26T21:54:43.360Z,81.69
2023-03-26T21:57:31.980Z,81.87
2023-03-26T22:00:18.546Z,81.66
2023-03-26T22:02:59.657Z,81.58
2023-03-26T22:05:32.915Z,81.78
2023-03-26T22:08:01.813Z,81.48
2023-03-26T22:10:29.797Z,81.46
2023-03-26T22:12:57.295Z,81.53
2023-03-26T22:15:30.482Z,81.72
2023-03-26T22:18:02.037Z,81.77
2023-03-26T22:20:29.500Z,81.37
2023-03-26T22:22:56.872Z,81.10
2023-03-26T22:25:24.241Z,81.33
2023-03-26T22:27:51.630Z,81.55
2023-03-26T22:30:20.795Z,81.67
2023-03-26T22:32:48.782Z,82.20
2023-03-26T22:35:16.335Z,82.42
2023-03-26T22:37:43.673Z,82.59
2023-03-26T22:40:13.529Z,82.98
2023-03-26T22:42:41.372Z,81.97
2023-03-26T22:45:09.521Z,80.31
2023-03-26T22:47:37.149Z,79.74
2023-03-26T22:50:06.007Z,78.34
2023-03-26T22:52:34.184Z,75.23
2023-03-26T22:55:01.527Z,66.96
2023-03-26T22:57:28.990Z,69.41
2023-03-26T22:59:56.360Z,70.22
2023-03-26T23:02:23.638Z,73.10
2023-03-26T23:04:50.986Z,73.29
2023-03-26T23:07:18.401Z,73.01
2023-03-26T23:09:45.754Z,72.10
2023-03-26T23:12:13.048Z,72.21
2023-03-26T23:14:41.575Z,71.94
2023-03-26T23:17:14.712Z,70.75
2023-03-26T23:19:43.942Z,71.20
2023-03-26T23:22:11.287Z,66.94
2023-03-26T23:24:39.587Z,70.61
2023-03-26T23:27:07.214Z,71.47
2023-03-26T23:29:34.479Z,67.95
2023-03-26T23:32:02.205Z,69.06
2023-03-26T23:34:29.460Z,71.14
2023-03-26T23:36:58.076Z,71.86
2023-03-26T23:39:26.797Z,73.38
2023-03-26T23:41:54.150Z,74.53
2023-03-26T23:44:21.460Z,72.92
2023-03-26T23:46:57.959Z,74.38
2023-03-26T23:49:25.610Z,75.85
2023-03-26T23:51:53.861Z,76.99
2023-03-26T23:54:21.676Z,76.54
2023-03-26T23:56:49.330Z,78.63
2023-03-26T23:59:17.088Z,77.02
